sensor_id;sensor_type;location;lat;lon;timestamp;temperature;humidity
8485;DHT22;34555;49.34829940;8.43506100;2022-07-09T00:00:50;23.80;57.90
8485;DHT22;34555;49.34829940;8.43506100;2022-07-09T00:03:16;23.80;57.90
8485;DHT22;34555;49.34829940;8.43506100;2022-07-09T00:05:41;23.80;57.90
8485;DHT22;34555;49.34829940;8.43506100;2022-07-09T00:08:07;23.80;57.80
8485;DHT22;34555;49.34829940;8.43506100;2022-07-09T00:10:33;23.80;57.80
8485;DHT22;34555;49.34829940;8.43506100;2022-07-09T00:12:59;23.90;57.90
8485;DHT22;34555;49.34829940;8.43506100;2022-07-09T00:15:24;23.80;57.90
8485;DHT22;34555;49.34829940;8.43506100;2022-07-09T00:17:51;23.80;57.90
8485;DHT22;34555;49.34829940;8.43506100;2022-07-09T00:20:16;23.80;57.90
8485;DHT22;34555;49.34829940;8.43506100;2022-07-09T00:22:42;23.80;57.90
8485;DHT22;34555;49.34829940;8.43506100;2022-07-09T00:25:08;23.80;57.90
8485;DHT22;34555;49.34829940;8.43506100;2022-07-09T00:27:34;23.80;57.90
8485;DHT22;34555;49.34829940;8.43506100;2022-07-09T00:29:59;23.80;57.90
8485;DHT22;34555;49.34829940;8.43506100;2022-07-09T00:32:25;23.70;57.80
8485;DHT22;34555;49.34829940;8.43506100;2022-07-09T00:34:50;23.70;57.80
8485;DHT22;34555;49.34829940;8.43506100;2022-07-09T00:37:16;23.70;57.90
8485;DHT22;34555;49.34829940;8.43506100;2022-07-09T00:39:41;23.70;58.00
8485;DHT22;34555;49.34829940;8.43506100;2022-07-09T00:42:09;23.70;58.10
8485;DHT22;34555;49.34829940;8.43506100;2022-07-09T00:44:35;23.70;58.10
8485;DHT22;34555;49.34829940;8.43506100;2022-07-09T00:47:03;23.70;58.00
8485;DHT22;34555;49.34829940;8.43506100;2022-07-09T00:49:30;23.80;58.10
8485;DHT22;34555;49.34829940;8.43506100;2022-07-09T00:51:57;23.70;58.10
8485;DHT22;34555;49.34829940;8.43506100;2022-07-09T00:54:23;23.70;58.10
8485;DHT22;34555;49.34829940;8.43506100;2022-07-09T00:56:51;23.70;58.00
8485;DHT22;34555;49.34829940;8.43506100;2022-07-09T00:59:17;23.70;58.10
8485;DHT22;34555;49.34829940;8.43506100;2022-07-09T01:01:43;23.70;58.10
8485;DHT22;34555;49.34829940;8.43506100;2022-07-09T01:04:09;23.70;58.20
8485;DHT22;34555;49.34829940;8.43506100;2022-07-09T01:06:34;23.70;58.30
8485;DHT22;34555;49.34829940;8.43506100;2022-07-09T01:09:03;23.60;58.50
8485;DHT22;34555;49.34829940;8.43506100;2022-07-09T01:11:30;23.60;58.40
8485;DHT22;34555;49.34829940;8.43506100;2022-07-09T01:13:56;23.70;58.40
8485;DHT22;34555;49.34829940;8.43506100;2022-07-09T01:16:21;23.70;58.30
8485;DHT22;34555;49.34829940;8.43506100;2022-07-09T01:18:49;23.70;58.30
8485;DHT22;34555;49.34829940;8.43506100;2022-07-09T01:21:14;23.70;58.30
8485;DHT22;34555;49.34829940;8.43506100;2022-07-09T01:23:40;23.60;58.50
8485;DHT22;34555;49.34829940;8.43506100;2022-07-09T01:26:06;23.60;58.50
8485;DHT22;34555;49.34829940;8.43506100;2022-07-09T01:28:32;23.60;58.70
8485;DHT22;34555;49.34829940;8.43506100;2022-07-09T01:30:58;23.50;59.00
8485;DHT22;34555;49.34829940;8.43506100;2022-07-09T01:33:25;23.50;59.00
8485;DHT22;34555;49.34829940;8.43506100;2022-07-09T01:35:50;23.50;59.10
8485;DHT22;34555;49.34829940;8.43506100;2022-07-09T01:38:16;23.50;59.00
8485;DHT22;34555;49.34829940;8.43506100;2022-07-09T01:40:42;23.60;58.70
8485;DHT22;34555;49.34829940;8.43506100;2022-07-09T01:43:07;23.60;58.60
8485;DHT22;34555;49.34829940;8.43506100;2022-07-09T01:45:33;23.60;58.80
8485;DHT22;34555;49.34829940;8.43506100;2022-07-09T01:47:58;23.50;58.70
8485;DHT22;34555;49.34829940;8.43506100;2022-07-09T01:50:24;23.40;59.10
8485;DHT22;34555;49.34829940;8.43506100;2022-07-09T01:52:50;23.50;59.00
8485;DHT22;34555;49.34829940;8.43506100;2022-07-09T01:55:16;23.50;58.80
8485;DHT22;34555;49.34829940;8.43506100;2022-07-09T01:57:41;23.50;58.80
8485;DHT22;34555;49.34829940;8.43506100;2022-07-09T02:00:07;23.60;58.80
8485;DHT22;34555;49.34829940;8.43506100;2022-07-09T02:02:33;23.60;58.80
8485;DHT22;34555;49.34829940;8.43506100;2022-07-09T02:04:59;23.50;58.90
8485;DHT22;34555;49.34829940;8.43506100;2022-07-09T02:07:24;23.50;58.90
8485;DHT22;34555;49.34829940;8.43506100;2022-07-09T02:09:50;23.50;58.80
8485;DHT22;34555;49.34829940;8.43506100;2022-07-09T02:12:16;23.40;59.20
8485;DHT22;34555;49.34829940;8.43506100;2022-07-09T02:14:42;23.30;59.40
8485;DHT22;34555;49.34829940;8.43506100;2022-07-09T02:17:08;23.20;59.70
8485;DHT22;34555;49.34829940;8.43506100;2022-07-09T02:19:33;23.20;59.70
8485;DHT22;34555;49.34829940;8.43506100;2022-07-09T02:21:59;23.10;59.90
8485;DHT22;34555;49.34829940;8.43506100;2022-07-09T02:24:25;23.00;60.10
8485;DHT22;34555;49.34829940;8.43506100;2022-07-09T02:26:50;23.00;60.00
8485;DHT22;34555;49.34829940;8.43506100;2022-07-09T02:29:16;23.00;60.10
8485;DHT22;34555;49.34829940;8.43506100;2022-07-09T02:31:42;23.00;60.10
8485;DHT22;34555;49.34829940;8.43506100;2022-07-09T02:34:07;23.00;60.30
8485;DHT22;34555;49.34829940;8.43506100;2022-07-09T02:36:33;23.10;60.10
8485;DHT22;34555;49.34829940;8.43506100;2022-07-09T02:38:58;23.00;60.10
8485;DHT22;34555;49.34829940;8.43506100;2022-07-09T02:41:24;23.00;60.30
8485;DHT22;34555;49.34829940;8.43506100;2022-07-09T02:43:49;23.00;60.20
8485;DHT22;34555;49.34829940;8.43506100;2022-07-09T02:46:15;23.10;60.20
8485;DHT22;34555;49.34829940;8.43506100;2022-07-09T02:48:41;23.00;60.20
8485;DHT22;34555;49.34829940;8.43506100;2022-07-09T02:51:06;22.90;61.00
8485;DHT22;34555;49.34829940;8.43506100;2022-07-09T02:53:32;22.90;60.50
8485;DHT22;34555;49.34829940;8.43506100;2022-07-09T02:55:57;22.80;60.70
8485;DHT22;34555;49.34829940;8.43506100;2022-07-09T02:58:24;22.80;60.90
8485;DHT22;34555;49.34829940;8.43506100;2022-07-09T03:00:49;22.80;60.80
8485;DHT22;34555;49.34829940;8.43506100;2022-07-09T03:03:15;22.90;60.70
8485;DHT22;34555;49.34829940;8.43506100;2022-07-09T03:05:42;22.80;60.80
8485;DHT22;34555;49.34829940;8.43506100;2022-07-09T03:08:07;22.70;60.90
8485;DHT22;34555;49.34829940;8.43506100;2022-07-09T03:10:34;22.70;61.00
8485;DHT22;34555;49.34829940;8.43506100;2022-07-09T03:13:00;22.80;60.90
8485;DHT22;34555;49.34829940;8.43506100;2022-07-09T03:15:26;22.80;60.90
8485;DHT22;34555;49.34829940;8.43506100;2022-07-09T03:17:51;22.70;61.00
8485;DHT22;34555;49.34829940;8.43506100;2022-07-09T03:20:17;22.80;60.90
8485;DHT22;34555;49.34829940;8.43506100;2022-07-09T03:22:43;22.80;61.10
8485;DHT22;34555;49.34829940;8.43506100;2022-07-09T03:25:08;22.50;61.60
8485;DHT22;34555;49.34829940;8.43506100;2022-07-09T03:27:35;22.00;62.90
8485;DHT22;34555;49.34829940;8.43506100;2022-07-09T03:30:01;22.00;63.20
8485;DHT22;34555;49.34829940;8.43506100;2022-07-09T03:32:27;22.30;62.50
8485;DHT22;34555;49.34829940;8.43506100;2022-07-09T03:34:53;22.50;62.10
8485;DHT22;34555;49.34829940;8.43506100;2022-07-09T03:37:20;22.50;62.10
8485;DHT22;34555;49.34829940;8.43506100;2022-07-09T03:39:45;22.30;62.20
8485;DHT22;34555;49.34829940;8.43506100;2022-07-09T03:42:13;22.30;62.60
8485;DHT22;34555;49.34829940;8.43506100;2022-07-09T03:44:39;22.40;62.50
8485;DHT22;34555;49.34829940;8.43506100;2022-07-09T03:47:05;22.50;61.90
8485;DHT22;34555;49.34829940;8.43506100;2022-07-09T03:49:31;22.40;62.30
8485;DHT22;34555;49.34829940;8.43506100;2022-07-09T03:51:56;22.40;62.00
8485;DHT22;34555;49.34829940;8.43506100;2022-07-09T03:54:22;22.50;62.00
8485;DHT22;34555;49.34829940;8.43506100;2022-07-09T03:56:48;22.20;62.50
8485;DHT22;34555;49.34829940;8.43506100;2022-07-09T03:59:13;22.20;63.00
8485;DHT22;34555;49.34829940;8.43506100;2022-07-09T04:01:39;21.90;63.60
8485;DHT22;34555;49.34829940;8.43506100;2022-07-09T04:04:05;21.70;64.40
8485;DHT22;34555;49.34829940;8.43506100;2022-07-09T04:06:31;22.10;63.50
8485;DHT22;34555;49.34829940;8.43506100;2022-07-09T04:08:56;22.40;62.80
8485;DHT22;34555;49.34829940;8.43506100;2022-07-09T04:11:22;22.60;62.20
8485;DHT22;34555;49.34829940;8.43506100;2022-07-09T04:13:48;22.50;62.10
8485;DHT22;34555;49.34829940;8.43506100;2022-07-09T04:16:14;22.40;62.70
8485;DHT22;34555;49.34829940;8.43506100;2022-07-09T04:18:40;22.30;63.10
8485;DHT22;34555;49.34829940;8.43506100;2022-07-09T04:21:10;22.30;63.10
8485;DHT22;34555;49.34829940;8.43506100;2022-07-09T04:23:36;22.00;63.70
8485;DHT22;34555;49.34829940;8.43506100;2022-07-09T04:26:02;22.00;63.80
8485;DHT22;34555;49.34829940;8.43506100;2022-07-09T04:28:27;22.10;64.50
8485;DHT22;34555;49.34829940;8.43506100;2022-07-09T04:30:53;22.00;63.90
8485;DHT22;34555;49.34829940;8.43506100;2022-07-09T04:33:18;22.00;64.20
8485;DHT22;34555;49.34829940;8.43506100;2022-07-09T04:35:45;22.00;64.10
8485;DHT22;34555;49.34829940;8.43506100;2022-07-09T04:38:13;22.10;64.20
8485;DHT22;34555;49.34829940;8.43506100;2022-07-09T04:40:39;22.20;63.90
8485;DHT22;34555;49.34829940;8.43506100;2022-07-09T04:43:06;22.40;63.20
8485;DHT22;34555;49.34829940;8.43506100;2022-07-09T04:45:31;22.30;64.00
8485;DHT22;34555;49.34829940;8.43506100;2022-07-09T04:47:58;22.50;63.50
8485;DHT22;34555;49.34829940;8.43506100;2022-07-09T04:50:24;22.50;63.60
8485;DHT22;34555;49.34829940;8.43506100;2022-07-09T04:52:50;22.40;63.80
8485;DHT22;34555;49.34829940;8.43506100;2022-07-09T04:55:16;22.40;64.10
8485;DHT22;34555;49.34829940;8.43506100;2022-07-09T04:57:42;22.10;64.90
8485;DHT22;34555;49.34829940;8.43506100;2022-07-09T05:00:09;22.30;64.20
8485;DHT22;34555;49.34829940;8.43506100;2022-07-09T05:02:35;22.40;64.10
8485;DHT22;34555;49.34829940;8.43506100;2022-07-09T05:05:01;22.70;63.10
8485;DHT22;34555;49.34829940;8.43506100;2022-07-09T05:07:29;22.50;64.20
8485;DHT22;34555;49.34829940;8.43506100;2022-07-09T05:09:56;22.50;64.50
8485;DHT22;34555;49.34829940;8.43506100;2022-07-09T05:12:21;22.50;64.50
8485;DHT22;34555;49.34829940;8.43506100;2022-07-09T05:14:47;22.50;64.50
8485;DHT22;34555;49.34829940;8.43506100;2022-07-09T05:17:12;22.50;64.70
8485;DHT22;34555;49.34829940;8.43506100;2022-07-09T05:19:38;22.50;64.60
8485;DHT22;34555;49.34829940;8.43506100;2022-07-09T05:22:04;22.60;64.70
8485;DHT22;34555;49.34829940;8.43506100;2022-07-09T05:24:29;22.50;64.80
8485;DHT22;34555;49.34829940;8.43506100;2022-07-09T05:26:55;22.60;64.80
8485;DHT22;34555;49.34829940;8.43506100;2022-07-09T05:29:21;22.60;64.60
8485;DHT22;34555;49.34829940;8.43506100;2022-07-09T05:31:48;22.70;64.70
8485;DHT22;34555;49.34829940;8.43506100;2022-07-09T05:34:15;22.70;64.10
8485;DHT22;34555;49.34829940;8.43506100;2022-07-09T05:36:40;22.70;64.40
8485;DHT22;34555;49.34829940;8.43506100;2022-07-09T05:39:06;22.80;64.80
8485;DHT22;34555;49.34829940;8.43506100;2022-07-09T05:41:32;22.80;68.40
8485;DHT22;34555;49.34829940;8.43506100;2022-07-09T05:43:58;22.80;67.10
8485;DHT22;34555;49.34829940;8.43506100;2022-07-09T05:46:24;22.90;66.20
8485;DHT22;34555;49.34829940;8.43506100;2022-07-09T05:48:49;23.00;65.50
8485;DHT22;34555;49.34829940;8.43506100;2022-07-09T05:51:15;23.00;65.40
8485;DHT22;34555;49.34829940;8.43506100;2022-07-09T05:53:41;22.90;65.80
8485;DHT22;34555;49.34829940;8.43506100;2022-07-09T05:56:06;23.00;65.90
8485;DHT22;34555;49.34829940;8.43506100;2022-07-09T05:58:33;22.90;65.90
8485;DHT22;34555;49.34829940;8.43506100;2022-07-09T06:00:58;23.00;65.80
8485;DHT22;34555;49.34829940;8.43506100;2022-07-09T06:03:24;23.10;66.00
8485;DHT22;34555;49.34829940;8.43506100;2022-07-09T06:05:49;23.10;65.60
8485;DHT22;34555;49.34829940;8.43506100;2022-07-09T06:08:15;23.00;65.60
8485;DHT22;34555;49.34829940;8.43506100;2022-07-09T06:10:40;23.10;65.60
8485;DHT22;34555;49.34829940;8.43506100;2022-07-09T06:13:06;23.00;65.10
8485;DHT22;34555;49.34829940;8.43506100;2022-07-09T06:15:31;23.00;65.00
8485;DHT22;34555;49.34829940;8.43506100;2022-07-09T06:17:57;23.10;64.80
8485;DHT22;34555;49.34829940;8.43506100;2022-07-09T06:20:22;23.10;64.80
8485;DHT22;34555;49.34829940;8.43506100;2022-07-09T06:22:48;23.10;64.70
8485;DHT22;34555;49.34829940;8.43506100;2022-07-09T06:25:13;23.10;64.50
8485;DHT22;34555;49.34829940;8.43506100;2022-07-09T06:27:39;23.10;64.20
8485;DHT22;34555;49.34829940;8.43506100;2022-07-09T06:30:08;23.20;64.20
8485;DHT22;34555;49.34829940;8.43506100;2022-07-09T06:32:34;23.20;64.00
8485;DHT22;34555;49.34829940;8.43506100;2022-07-09T06:35:00;23.20;64.00
8485;DHT22;34555;49.34829940;8.43506100;2022-07-09T06:37:26;23.20;64.00
8485;DHT22;34555;49.34829940;8.43506100;2022-07-09T06:39:51;23.20;64.00
8485;DHT22;34555;49.34829940;8.43506100;2022-07-09T06:42:21;23.30;64.10
8485;DHT22;34555;49.34829940;8.43506100;2022-07-09T06:44:47;23.20;63.70
8485;DHT22;34555;49.34829940;8.43506100;2022-07-09T06:47:12;23.20;63.60
8485;DHT22;34555;49.34829940;8.43506100;2022-07-09T06:49:38;23.30;63.80
8485;DHT22;34555;49.34829940;8.43506100;2022-07-09T06:52:04;23.30;63.50
8485;DHT22;34555;49.34829940;8.43506100;2022-07-09T06:54:30;23.30;63.60
8485;DHT22;34555;49.34829940;8.43506100;2022-07-09T06:56:55;23.30;63.30
8485;DHT22;34555;49.34829940;8.43506100;2022-07-09T06:59:24;23.30;63.50
8485;DHT22;34555;49.34829940;8.43506100;2022-07-09T07:01:49;23.30;63.40
8485;DHT22;34555;49.34829940;8.43506100;2022-07-09T07:04:15;23.30;63.20
8485;DHT22;34555;49.34829940;8.43506100;2022-07-09T07:06:44;23.30;63.30
8485;DHT22;34555;49.34829940;8.43506100;2022-07-09T07:09:12;23.30;63.10
8485;DHT22;34555;49.34829940;8.43506100;2022-07-09T07:11:38;23.30;63.00
8485;DHT22;34555;49.34829940;8.43506100;2022-07-09T07:14:03;23.30;62.80
8485;DHT22;34555;49.34829940;8.43506100;2022-07-09T07:16:29;23.30;62.80
8485;DHT22;34555;49.34829940;8.43506100;2022-07-09T07:18:54;23.40;62.80
8485;DHT22;34555;49.34829940;8.43506100;2022-07-09T07:21:20;23.30;62.50
8485;DHT22;34555;49.34829940;8.43506100;2022-07-09T07:23:45;23.40;62.80
8485;DHT22;34555;49.34829940;8.43506100;2022-07-09T07:26:11;23.40;62.80
8485;DHT22;34555;49.34829940;8.43506100;2022-07-09T07:28:36;23.30;62.50
8485;DHT22;34555;49.34829940;8.43506100;2022-07-09T07:31:02;23.40;62.50
8485;DHT22;34555;49.34829940;8.43506100;2022-07-09T07:33:28;23.40;62.50
8485;DHT22;34555;49.34829940;8.43506100;2022-07-09T07:35:53;23.40;62.50
8485;DHT22;34555;49.34829940;8.43506100;2022-07-09T07:38:19;23.40;62.50
8485;DHT22;34555;49.34829940;8.43506100;2022-07-09T07:40:44;23.40;62.30
8485;DHT22;34555;49.34829940;8.43506100;2022-07-09T07:43:10;23.40;62.30
8485;DHT22;34555;49.34829940;8.43506100;2022-07-09T07:45:39;23.40;62.30
8485;DHT22;34555;49.34829940;8.43506100;2022-07-09T07:48:05;23.40;62.20
8485;DHT22;34555;49.34829940;8.43506100;2022-07-09T07:50:30;23.40;62.10
8485;DHT22;34555;49.34829940;8.43506100;2022-07-09T07:52:58;23.50;62.20
8485;DHT22;34555;49.34829940;8.43506100;2022-07-09T07:55:23;23.50;62.10
8485;DHT22;34555;49.34829940;8.43506100;2022-07-09T07:57:49;23.50;62.10
8485;DHT22;34555;49.34829940;8.43506100;2022-07-09T08:00:15;23.50;62.20
8485;DHT22;34555;49.34829940;8.43506100;2022-07-09T08:02:40;23.50;62.00
8485;DHT22;34555;49.34829940;8.43506100;2022-07-09T08:05:06;23.50;62.10
8485;DHT22;34555;49.34829940;8.43506100;2022-07-09T08:07:32;23.50;62.00
8485;DHT22;34555;49.34829940;8.43506100;2022-07-09T08:09:58;23.50;62.10
8485;DHT22;34555;49.34829940;8.43506100;2022-07-09T08:12:24;23.50;62.00
8485;DHT22;34555;49.34829940;8.43506100;2022-07-09T08:14:49;23.50;62.00
8485;DHT22;34555;49.34829940;8.43506100;2022-07-09T08:17:15;23.50;61.90
8485;DHT22;34555;49.34829940;8.43506100;2022-07-09T08:19:40;23.50;61.90
8485;DHT22;34555;49.34829940;8.43506100;2022-07-09T08:22:06;23.50;61.80
8485;DHT22;34555;49.34829940;8.43506100;2022-07-09T08:24:31;23.60;61.90
8485;DHT22;34555;49.34829940;8.43506100;2022-07-09T08:26:57;23.50;61.80
8485;DHT22;34555;49.34829940;8.43506100;2022-07-09T08:29:24;23.50;61.80
8485;DHT22;34555;49.34829940;8.43506100;2022-07-09T08:31:50;23.50;61.70
8485;DHT22;34555;49.34829940;8.43506100;2022-07-09T08:34:16;23.50;61.70
8485;DHT22;34555;49.34829940;8.43506100;2022-07-09T08:36:42;23.60;61.80
8485;DHT22;34555;49.34829940;8.43506100;2022-07-09T08:39:07;23.60;61.70
8485;DHT22;34555;49.34829940;8.43506100;2022-07-09T08:41:33;23.60;61.70
8485;DHT22;34555;49.34829940;8.43506100;2022-07-09T08:44:00;23.60;61.70
8485;DHT22;34555;49.34829940;8.43506100;2022-07-09T08:46:27;23.60;61.70
8485;DHT22;34555;49.34829940;8.43506100;2022-07-09T08:48:53;23.60;61.70
8485;DHT22;34555;49.34829940;8.43506100;2022-07-09T08:51:19;23.60;61.70
8485;DHT22;34555;49.34829940;8.43506100;2022-07-09T08:53:46;23.60;61.60
8485;DHT22;34555;49.34829940;8.43506100;2022-07-09T08:56:11;23.70;61.70
8485;DHT22;34555;49.34829940;8.43506100;2022-07-09T08:58:37;23.70;61.70
8485;DHT22;34555;49.34829940;8.43506100;2022-07-09T09:01:04;23.70;61.60
8485;DHT22;34555;49.34829940;8.43506100;2022-07-09T09:03:32;23.70;61.70
8485;DHT22;34555;49.34829940;8.43506100;2022-07-09T09:06:04;23.70;61.70
8485;DHT22;34555;49.34829940;8.43506100;2022-07-09T09:08:41;23.70;61.70
8485;DHT22;34555;49.34829940;8.43506100;2022-07-09T09:11:12;23.70;61.60
8485;DHT22;34555;49.34829940;8.43506100;2022-07-09T09:13:48;23.70;61.70
8485;DHT22;34555;49.34829940;8.43506100;2022-07-09T09:16:15;23.70;61.70
8485;DHT22;34555;49.34829940;8.43506100;2022-07-09T09:18:46;23.70;61.60
8485;DHT22;34555;49.34829940;8.43506100;2022-07-09T09:21:13;23.70;61.60
8485;DHT22;34555;49.34829940;8.43506100;2022-07-09T09:23:44;23.70;61.70
8485;DHT22;34555;49.34829940;8.43506100;2022-07-09T09:33:52;23.80;61.70
8485;DHT22;34555;49.34829940;8.43506100;2022-07-09T09:36:26;23.80;61.60
8485;DHT22;34555;49.34829940;8.43506100;2022-07-09T09:38:52;23.80;61.60
8485;DHT22;34555;49.34829940;8.43506100;2022-07-09T09:41:27;23.80;61.60
8485;DHT22;34555;49.34829940;8.43506100;2022-07-09T09:43:54;23.80;61.50
8485;DHT22;34555;49.34829940;8.43506100;2022-07-09T09:46:23;23.80;61.50
8485;DHT22;34555;49.34829940;8.43506100;2022-07-09T09:48:50;23.80;61.60
8485;DHT22;34555;49.34829940;8.43506100;2022-07-09T09:51:17;23.80;61.50
8485;DHT22;34555;49.34829940;8.43506100;2022-07-09T09:53:45;23.80;61.60
8485;DHT22;34555;49.34829940;8.43506100;2022-07-09T09:56:12;23.90;61.60
8485;DHT22;34555;49.34829940;8.43506100;2022-07-09T09:58:38;23.90;61.60
8485;DHT22;34555;49.34829940;8.43506100;2022-07-09T10:01:04;23.90;61.50
8485;DHT22;34555;49.34829940;8.43506100;2022-07-09T10:03:30;23.90;61.60
8485;DHT22;34555;49.34829940;8.43506100;2022-07-09T10:05:56;23.90;61.60
8485;DHT22;34555;49.34829940;8.43506100;2022-07-09T10:08:22;23.90;61.50
8485;DHT22;34555;49.34829940;8.43506100;2022-07-09T10:10:51;23.90;61.60
8485;DHT22;34555;49.34829940;8.43506100;2022-07-09T10:13:21;23.90;61.60
8485;DHT22;34555;49.34829940;8.43506100;2022-07-09T10:15:50;24.00;61.70
8485;DHT22;34555;49.34829940;8.43506100;2022-07-09T10:18:19;24.00;61.60
8485;DHT22;34555;49.34829940;8.43506100;2022-07-09T10:20:45;23.90;61.40
8485;DHT22;34555;49.34829940;8.43506100;2022-07-09T10:23:26;24.00;61.60
8485;DHT22;34555;49.34829940;8.43506100;2022-07-09T10:25:52;24.00;61.50
8485;DHT22;34555;49.34829940;8.43506100;2022-07-09T10:28:21;23.90;61.40
8485;DHT22;34555;49.34829940;8.43506100;2022-07-09T10:30:47;24.00;61.50
8485;DHT22;34555;49.34829940;8.43506100;2022-07-09T10:33:32;24.00;61.50
8485;DHT22;34555;49.34829940;8.43506100;2022-07-09T10:36:17;24.00;61.50
8485;DHT22;34555;49.34829940;8.43506100;2022-07-09T10:38:53;24.00;61.50
8485;DHT22;34555;49.34829940;8.43506100;2022-07-09T10:41:23;24.00;62.10
8485;DHT22;34555;49.34829940;8.43506100;2022-07-09T10:43:52;24.00;61.50
8485;DHT22;34555;49.34829940;8.43506100;2022-07-09T10:46:19;24.00;61.40
8485;DHT22;34555;49.34829940;8.43506100;2022-07-09T10:48:45;24.00;61.40
8485;DHT22;34555;49.34829940;8.43506100;2022-07-09T10:51:22;24.00;61.30
8485;DHT22;34555;49.34829940;8.43506100;2022-07-09T10:53:48;24.00;61.30
8485;DHT22;34555;49.34829940;8.43506100;2022-07-09T10:56:21;24.00;61.30
8485;DHT22;34555;49.34829940;8.43506100;2022-07-09T10:58:48;24.00;61.30
8485;DHT22;34555;49.34829940;8.43506100;2022-07-09T11:01:19;24.00;61.30
8485;DHT22;34555;49.34829940;8.43506100;2022-07-09T11:03:51;24.00;61.30
8485;DHT22;34555;49.34829940;8.43506100;2022-07-09T11:06:17;24.00;61.30
8485;DHT22;34555;49.34829940;8.43506100;2022-07-09T11:08:42;24.00;61.30
8485;DHT22;34555;49.34829940;8.43506100;2022-07-09T11:11:08;24.00;61.30
8485;DHT22;34555;49.34829940;8.43506100;2022-07-09T11:13:34;24.10;61.30
8485;DHT22;34555;49.34829940;8.43506100;2022-07-09T11:16:00;24.00;61.20
8485;DHT22;34555;49.34829940;8.43506100;2022-07-09T11:18:27;24.10;61.20
8485;DHT22;34555;49.34829940;8.43506100;2022-07-09T11:20:53;24.10;61.20
8485;DHT22;34555;49.34829940;8.43506100;2022-07-09T11:23:18;24.10;61.20
8485;DHT22;34555;49.34829940;8.43506100;2022-07-09T11:25:44;24.10;61.20
8485;DHT22;34555;49.34829940;8.43506100;2022-07-09T11:28:24;24.10;61.20
8485;DHT22;34555;49.34829940;8.43506100;2022-07-09T11:30:59;24.10;61.00
8485;DHT22;34555;49.34829940;8.43506100;2022-07-09T11:33:25;24.10;61.10
8485;DHT22;34555;49.34829940;8.43506100;2022-07-09T11:35:51;24.10;61.70
8485;DHT22;34555;49.34829940;8.43506100;2022-07-09T11:38:17;24.10;61.00
8485;DHT22;34555;49.34829940;8.43506100;2022-07-09T11:40:42;24.10;61.00
8485;DHT22;34555;49.34829940;8.43506100;2022-07-09T11:43:15;24.10;60.80
8485;DHT22;34555;49.34829940;8.43506100;2022-07-09T11:45:52;24.10;61.00
8485;DHT22;34555;49.34829940;8.43506100;2022-07-09T11:48:18;24.10;60.90
8485;DHT22;34555;49.34829940;8.43506100;2022-07-09T11:50:45;24.20;61.00
8485;DHT22;34555;49.34829940;8.43506100;2022-07-09T11:53:23;24.20;61.00
8485;DHT22;34555;49.34829940;8.43506100;2022-07-09T11:56:02;24.20;60.90
8485;DHT22;34555;49.34829940;8.43506100;2022-07-09T11:58:30;24.20;61.60
8485;DHT22;34555;49.34829940;8.43506100;2022-07-09T12:00:56;24.20;60.80
8485;DHT22;34555;49.34829940;8.43506100;2022-07-09T12:03:28;24.20;60.90
8485;DHT22;34555;49.34829940;8.43506100;2022-07-09T12:05:55;24.20;60.90
8485;DHT22;34555;49.34829940;8.43506100;2022-07-09T12:08:29;24.20;60.90
8485;DHT22;34555;49.34829940;8.43506100;2022-07-09T12:10:55;24.30;60.80
8485;DHT22;34555;49.34829940;8.43506100;2022-07-09T12:13:21;24.30;60.90
8485;DHT22;34555;49.34829940;8.43506100;2022-07-09T12:15:46;24.30;60.80
8485;DHT22;34555;49.34829940;8.43506100;2022-07-09T12:18:12;24.30;60.80
8485;DHT22;34555;49.34829940;8.43506100;2022-07-09T12:20:37;24.30;60.70
8485;DHT22;34555;49.34829940;8.43506100;2022-07-09T12:23:03;24.30;60.80
8485;DHT22;34555;49.34829940;8.43506100;2022-07-09T12:25:29;24.30;60.70
8485;DHT22;34555;49.34829940;8.43506100;2022-07-09T12:27:54;24.30;60.70
8485;DHT22;34555;49.34829940;8.43506100;2022-07-09T12:30:20;24.30;60.70
8485;DHT22;34555;49.34829940;8.43506100;2022-07-09T12:32:46;24.30;60.70
8485;DHT22;34555;49.34829940;8.43506100;2022-07-09T12:35:13;24.30;60.70
8485;DHT22;34555;49.34829940;8.43506100;2022-07-09T12:37:39;24.30;60.70
8485;DHT22;34555;49.34829940;8.43506100;2022-07-09T12:40:07;24.30;60.70
8485;DHT22;34555;49.34829940;8.43506100;2022-07-09T12:42:33;24.30;60.70
8485;DHT22;34555;49.34829940;8.43506100;2022-07-09T12:44:58;24.30;60.70
8485;DHT22;34555;49.34829940;8.43506100;2022-07-09T12:47:24;24.30;60.70
8485;DHT22;34555;49.34829940;8.43506100;2022-07-09T12:49:50;24.30;60.70
8485;DHT22;34555;49.34829940;8.43506100;2022-07-09T12:52:16;24.40;60.80
8485;DHT22;34555;49.34829940;8.43506100;2022-07-09T12:54:41;24.40;60.80
8485;DHT22;34555;49.34829940;8.43506100;2022-07-09T12:57:07;24.40;60.80
8485;DHT22;34555;49.34829940;8.43506100;2022-07-09T12:59:32;24.40;60.70
8485;DHT22;34555;49.34829940;8.43506100;2022-07-09T13:01:58;24.40;60.80
8485;DHT22;34555;49.34829940;8.43506100;2022-07-09T13:04:24;24.40;60.80
8485;DHT22;34555;49.34829940;8.43506100;2022-07-09T13:06:49;24.40;60.70
8485;DHT22;34555;49.34829940;8.43506100;2022-07-09T13:09:15;24.50;60.80
8485;DHT22;34555;49.34829940;8.43506100;2022-07-09T13:11:40;24.50;60.90
8485;DHT22;34555;49.34829940;8.43506100;2022-07-09T13:14:06;24.50;60.90
8485;DHT22;34555;49.34829940;8.43506100;2022-07-09T13:16:32;24.50;60.90
8485;DHT22;34555;49.34829940;8.43506100;2022-07-09T13:18:59;24.50;60.90
8485;DHT22;34555;49.34829940;8.43506100;2022-07-09T13:21:25;24.50;61.10
8485;DHT22;34555;49.34829940;8.43506100;2022-07-09T13:23:50;24.70;61.10
8485;DHT22;34555;49.34829940;8.43506100;2022-07-09T13:26:17;25.00;61.20
8485;DHT22;34555;49.34829940;8.43506100;2022-07-09T13:28:43;25.30;60.10
8485;DHT22;34555;49.34829940;8.43506100;2022-07-09T13:31:08;25.70;58.80
8485;DHT22;34555;49.34829940;8.43506100;2022-07-09T13:33:35;25.70;58.30
8485;DHT22;34555;49.34829940;8.43506100;2022-07-09T13:36:02;25.80;57.70
8485;DHT22;34555;49.34829940;8.43506100;2022-07-09T13:38:28;26.20;55.60